Time;durP1;ratioP1;P1;durP2;ratioP2;P2;SDS_P1;SDS_P2;PMS_P1;PMS_P2;Temp;Humidity;BMP_temperature;BMP_pressure;BME280_temperature;BME280_humidity;BME280_pressure;Samples;Min_cycle;Max_cycle;Signal;HPM_P1;HPM_P2
2024/03/22 00:01:55;;;;;;;5.50;2.42;;;;;;;10.08;70.73;100439.28;4995824;28;20046;-46
2024/03/22 00:04:21;;;;;;;4.43;1.73;;;;;;;9.95;70.36;100431.44;4998723;28;20051;-43
2024/03/22 00:06:48;;;;;;;4.43;2.90;;;;;;;10.03;69.72;100429.75;4999616;28;20102;-45
2024/03/22 00:09:14;;;;;;;7.88;2.33;;;;;;;9.96;70.92;100434.91;4989537;28;20046;-42
2024/03/22 00:11:41;;;;;;;6.25;2.35;;;;;;;9.90;70.71;100435.75;4987210;28;20042;-42
2024/03/22 00:14:07;;;;;;;4.38;2.53;;;;;;;9.93;70.77;100427.97;5000388;28;20054;-42
2024/03/22 00:16:33;;;;;;;5.50;2.28;;;;;;;10.01;70.04;100439.25;5002418;28;20112;-44
2024/03/22 00:18:59;;;;;;;4.95;1.80;;;;;;;9.90;70.50;100427.97;5001464;28;20458;-42
2024/03/22 00:21:25;;;;;;;6.25;2.60;;;;;;;9.93;70.18;100430.56;5008395;28;20100;-44
2024/03/22 00:23:51;;;;;;;6.68;2.83;;;;;;;9.90;70.66;100426.22;4996575;28;20129;-43
2024/03/22 00:26:17;;;;;;;4.30;2.20;;;;;;;9.77;71.44;100435.63;5002322;28;20447;-44
2024/03/22 00:28:42;;;;;;;6.25;2.42;;;;;;;9.80;71.73;100433.94;5002199;28;20054;-45
2024/03/22 00:31:09;;;;;;;6.88;2.28;;;;;;;9.86;71.79;100434.00;5001720;28;20092;-43
2024/03/22 00:33:34;;;;;;;6.78;2.35;;;;;;;9.86;71.63;100421.91;4993263;28;20055;-44
2024/03/22 00:36:00;;;;;;;5.28;2.08;;;;;;;9.77;72.20;100427.03;5008955;28;20073;-42
2024/03/22 00:38:26;;;;;;;4.82;2.17;;;;;;;9.86;71.98;100428.81;4998984;28;20530;-43
2024/03/22 00:40:52;;;;;;;5.65;2.40;;;;;;;9.87;72.25;100420.19;5003272;28;20046;-46
2024/03/22 00:43:17;;;;;;;4.40;1.52;;;;;;;9.85;72.77;100424.47;5003488;28;20058;-44
2024/03/22 00:45:43;;;;;;;6.82;2.30;;;;;;;9.93;72.68;100425.38;5001997;28;20053;-47
2024/03/22 00:48:09;;;;;;;7.25;2.45;;;;;;;9.89;73.20;100426.22;4994420;28;20047;-46
2024/03/22 00:50:35;;;;;;;4.47;2.35;;;;;;;9.92;73.39;100418.47;5000324;28;20089;-44
2024/03/22 00:53:02;;;;;;;9.82;2.78;;;;;;;9.95;73.27;100418.50;4996423;28;20096;-44
2024/03/22 00:55:28;;;;;;;8.35;2.47;;;;;;;9.97;72.92;100416.78;5002144;28;20530;-41
2024/03/22 00:57:54;;;;;;;6.70;2.55;;;;;;;9.95;73.84;100426.28;5001798;28;20077;-44
2024/03/22 01:00:20;;;;;;;6.18;2.67;;;;;;;9.99;73.57;100415.06;5002369;28;20396;-43
2024/03/22 01:02:45;;;;;;;4.65;1.80;;;;;;;10.01;72.88;100421.16;5005021;28;20473;-45
2024/03/22 01:05:12;;;;;;;8.77;3.03;;;;;;;10.03;73.84;100423.72;5005709;28;20069;-43
2024/03/22 01:07:38;;;;;;;6.57;2.53;;;;;;;10.08;72.65;100428.91;4999835;28;20104;-44
2024/03/22 01:10:04;;;;;;;6.28;2.30;;;;;;;10.07;73.53;100422.91;4993416;28;20072;-44
2024/03/22 01:12:31;;;;;;;9.30;3.25;;;;;;;10.07;73.80;100416.84;4992851;28;20058;-42
2024/03/22 01:14:57;;;;;;;6.93;3.22;;;;;;;10.11;73.50;100421.19;4979546;28;20503;-42
2024/03/22 01:17:24;;;;;;;7.70;3.33;;;;;;;10.11;74.27;100418.59;4983323;28;20042;-43
2024/03/22 01:19:51;;;;;;;13.90;3.85;;;;;;;10.19;73.70;100411.72;4982941;28;20503;-43
2024/03/22 01:22:18;;;;;;;5.72;2.22;;;;;;;10.12;74.43;100415.13;4981917;28;20539;-43
2024/03/22 01:24:45;;;;;;;9.57;4.03;;;;;;;10.17;73.66;100408.28;4987327;28;20047;-42
2024/03/22 01:27:12;;;;;;;12.63;3.08;;;;;;;10.21;73.79;100414.31;4988643;28;20050;-45
2024/03/22 01:29:38;;;;;;;5.18;2.33;;;;;;;10.12;74.49;100407.38;4989513;28;20038;-44
2024/03/22 01:32:05;;;;;;;10.13;3.60;;;;;;;10.17;74.63;100403.09;4986811;28;20057;-42
2024/03/22 01:34:31;;;;;;;9.20;2.13;;;;;;;10.19;75.21;100401.38;4983756;28;20050;-45
2024/03/22 01:36:58;;;;;;;8.95;3.28;;;;;;;10.22;74.83;100400.50;4985708;28;20396;-43
2024/03/22 01:39:24;;;;;;;8.70;2.95;;;;;;;10.21;75.51;100398.78;4984662;28;20061;-45
2024/03/22 01:41:51;;;;;;;6.10;2.92;;;;;;;10.17;74.68;100392.75;4982098;28;20062;-42
2024/03/22 01:44:18;;;;;;;7.75;4.28;;;;;;;10.21;75.04;100396.19;4982305;28;20650;-42
2024/03/22 01:46:45;;;;;;;8.40;3.03;;;;;;;10.26;74.33;100395.38;4989142;28;20118;-42
2024/03/22 01:49:15;;;;;;;9.43;3.10;;;;;;;10.25;74.76;100387.59;4975112;28;20059;-47
2024/03/22 01:51:42;;;;;;;5.03;2.30;;;;;;;10.22;74.72;100375.50;4983738;28;20054;-42
2024/03/22 01:54:10;;;;;;;11.60;3.63;;;;;;;10.24;75.14;100383.28;4978854;28;20499;-45
2024/03/22 01:56:37;;;;;;;7.93;3.63;;;;;;;10.26;74.69;100382.41;4982390;28;20046;-42
2024/03/22 01:59:04;;;;;;;5.57;2.13;;;;;;;10.26;75.36;100382.41;4978751;28;20042;-43
2024/03/22 02:01:30;;;;;;;9.57;2.92;;;;;;;10.29;75.16;100382.44;4978789;28;20061;-42
2024/03/22 02:03:56;;;;;;;7.70;3.05;;;;;;;10.26;75.60;100382.41;4985462;28;20050;-43
2024/03/22 02:06:22;;;;;;;6.57;2.78;;;;;;;10.18;75.54;100381.53;4985225;28;20097;-42
2024/03/22 02:08:47;;;;;;;9.65;4.03;;;;;;;10.26;75.84;100372.06;4986606;28;20101;-42
2024/03/22 02:11:13;;;;;;;4.93;2.10;;;;;;;10.18;75.94;100378.94;4982377;28;20038;-43
2024/03/22 02:13:39;;;;;;;8.32;2.95;;;;;;;10.25;75.23;100370.34;4977806;28;20466;-44
2024/03/22 02:16:05;;;;;;;6.05;2.08;;;;;;;10.20;76.07;100374.63;4982608;28;20054;-42
2024/03/22 02:18:31;;;;;;;4.32;2.50;;;;;;;10.09;77.52;100368.53;4978178;28;20042;-42
2024/03/22 02:20:57;;;;;;;4.80;1.73;;;;;;;10.17;76.92;100366.88;4985074;28;20097;-42
2024/03/22 02:23:40;;;;;;;4.15;2.25;;;;;;;10.11;76.94;100362.53;4984668;28;20133;-47
2024/03/22 02:26:07;;;;;;;6.88;3.40;;;;;;;10.11;77.59;100361.66;4985421;28;20073;-43
2024/03/22 02:28:35;;;;;;;6.85;3.30;;;;;;;10.17;76.36;100361.69;4983839;28;20140;-44
2024/03/22 02:31:02;;;;;;;10.73;4.10;;;;;;;10.18;76.57;100360.81;4985334;28;20074;-43
2024/03/22 02:33:28;;;;;;;8.55;3.15;;;;;;;10.11;77.81;100356.47;4985556;28;20388;-42
2024/03/22 02:35:54;;;;;;;9.98;3.65;;;;;;;10.13;77.57;100359.91;4987188;28;20054;-43
2024/03/22 02:38:20;;;;;;;8.88;3.80;;;;;;;10.17;76.72;100356.50;4985478;28;20577;-44
2024/03/22 02:40:47;;;;;;;4.90;2.55;;;;;;;10.07;77.86;100352.16;4983320;28;20050;-43
2024/03/22 02:43:13;;;;;;;13.20;4.30;;;;;;;10.09;78.53;100337.47;4982790;28;20408;-44
2024/03/22 02:45:39;;;;;;;8.90;3.97;;;;;;;10.16;77.65;100339.22;4984189;28;20121;-43
2024/03/22 02:48:06;;;;;;;6.43;3.15;;;;;;;10.15;77.87;100340.09;4985153;28;20058;-46
2024/03/22 02:50:33;;;;;;;8.93;3.15;;;;;;;10.10;78.54;100344.41;4986487;28;20050;-42
2024/03/22 02:52:59;;;;;;;13.25;4.05;;;;;;;10.16;77.49;100334.06;4983703;28;20050;-43
2024/03/22 02:55:25;;;;;;;8.88;3.40;;;;;;;10.19;77.37;100328.88;4984570;28;20069;-43
2024/03/22 02:57:51;;;;;;;10.52;3.60;;;;;;;10.21;76.92;100342.72;4985721;28;20034;-45
2024/03/22 03:00:18;;;;;;;10.93;4.00;;;;;;;10.21;77.85;100337.53;4983229;28;20071;-48
2024/03/22 03:02:44;;;;;;;7.57;2.85;;;;;;;10.13;78.69;100334.03;4986939;28;20065;-47
2024/03/22 03:05:10;;;;;;;8.55;2.80;;;;;;;10.16;78.76;100334.06;4985210;28;20042;-43
2024/03/22 03:07:35;;;;;;;10.35;4.25;;;;;;;10.21;77.80;100332.38;4982077;28;20101;-46
2024/03/22 03:10:01;;;;;;;9.93;3.10;;;;;;;10.20;77.78;100333.19;4982401;28;20520;-44
2024/03/22 03:12:27;;;;;;;9.02;2.47;;;;;;;10.22;77.88;100331.50;4984310;28;20051;-42
2024/03/22 03:14:52;;;;;;;6.32;2.13;;;;;;;10.23;78.51;100330.63;4985299;28;20491;-43
2024/03/22 03:17:18;;;;;;;10.77;3.45;;;;;;;10.23;78.84;100320.28;4983990;28;20042;-44
2024/03/22 03:19:44;;;;;;;7.47;2.92;;;;;;;10.23;78.65;100315.09;4978172;28;20483;-45
2024/03/22 03:22:10;;;;;;;8.07;3.08;;;;;;;10.17;79.20;100309.91;4979295;28;20058;-44
2024/03/22 03:24:36;;;;;;;16.05;3.45;;;;;;;10.17;79.45;100309.91;4979499;28;20116;-43
2024/03/22 03:27:02;;;;;;;7.63;2.60;;;;;;;10.15;79.74;100307.31;4987566;28;20081;-44
2024/03/22 03:29:28;;;;;;;11.27;4.25;;;;;;;10.19;79.36;100308.19;4983760;28;20058;-47
2024/03/22 03:31:54;;;;;;;9.50;3.08;;;;;;;10.21;79.51;100306.47;4985599;28;20082;-46
2024/03/22 03:34:20;;;;;;;9.57;4.20;;;;;;;10.22;78.99;100310.78;4980186;28;20050;-42
2024/03/22 03:36:46;;;;;;;8.05;4.18;;;;;;;10.21;79.59;100316.84;4981990;28;20427;-44
2024/03/22 03:39:12;;;;;;;16.50;5.28;;;;;;;10.20;79.20;100315.06;4988307;28;20101;-43
2024/03/22 03:41:38;;;;;;;10.02;3.55;;;;;;;10.21;79.43;100314.25;4977747;28;20482;-46
2024/03/22 03:44:04;;;;;;;4.47;2.95;;;;;;;10.11;80.68;100304.72;4984382;28;20051;-44
2024/03/22 03:46:30;;;;;;;10.05;4.75;;;;;;;10.20;80.11;100315.06;4982647;28;20077;-43
2024/03/22 03:48:55;;;;;;;5.95;2.38;;;;;;;10.21;79.61;100321.13;4981981;28;20550;-43
2024/03/22 03:51:21;;;;;;;9.65;3.10;;;;;;;10.24;80.17;100314.22;4983046;28;20037;-43
2024/03/22 03:53:46;;;;;;;9.55;4.05;;;;;;;10.23;79.73;100315.09;4977715;28;20046;-45
2024/03/22 03:56:12;;;;;;;4.55;3.30;;;;;;;10.25;80.30;100313.38;4979419;28;20540;-42
2024/03/22 03:58:38;;;;;;;8.50;2.70;;;;;;;10.28;80.24;100313.41;4985415;28;20145;-43
2024/03/22 04:01:06;;;;;;;7.10;3.17;;;;;;;10.27;79.67;100316.84;4978604;28;20162;-43
2024/03/22 04:03:32;;;;;;;4.13;2.80;;;;;;;10.22;80.00;100318.56;4982905;28;20050;-44
2024/03/22 04:05:58;;;;;;;11.60;3.80;;;;;;;10.27;80.19;100316.00;4979293;28;20050;-44
2024/03/22 04:08:25;;;;;;;8.43;3.47;;;;;;;10.22;80.45;100313.38;4984671;28;20054;-44
2024/03/22 04:10:53;;;;;;;5.03;2.05;;;;;;;10.19;80.95;100321.13;4978167;28;20061;-44
2024/03/22 04:13:18;;;;;;;8.30;3.28;;;;;;;10.24;80.53;100322.00;4985280;28;20058;-45
2024/03/22 04:15:44;;;;;;;10.13;3.88;;;;;;;10.26;80.69;100320.28;4983427;28;20046;-44
2024/03/22 04:18:10;;;;;;;8.07;3.67;;;;;;;10.25;80.95;100318.56;4978772;28;20042;-43
2024/03/22 04:20:35;;;;;;;8.98;3.33;;;;;;;10.18;80.83;100321.13;4980115;28;20046;-43
2024/03/22 04:23:01;;;;;;;8.02;3.72;;;;;;;10.19;80.81;100326.31;4982229;28;20073;-44
2024/03/22 04:25:27;;;;;;;6.72;3.38;;;;;;;10.18;81.12;100331.47;4985380;28;20503;-45
2024/03/22 04:27:53;;;;;;;4.32;2.03;;;;;;;10.22;81.71;100346.16;4983987;28;20047;-46
2024/03/22 04:30:18;;;;;;;6.13;3.13;;;;;;;10.25;81.04;100339.28;4982727;28;20054;-42
2024/03/22 04:32:46;;;;;;;3.55;1.55;;;;;;;10.24;80.32;100342.69;4983653;28;20046;-44
2024/03/22 04:35:12;;;;;;;2.45;1.38;;;;;;;10.22;79.60;100351.31;4985775;28;20046;-43
2024/03/22 04:37:37;;;;;;;1.38;0.47;;;;;;;10.14;80.06;100351.31;4985495;28;20161;-43
2024/03/22 04:40:04;;;;;;;2.90;1.00;;;;;;;10.08;79.75;100357.34;4995191;28;20054;-43
2024/03/22 04:42:29;;;;;;;6.30;0.80;;;;;;;10.06;79.74;100353.00;4981402;28;20050;-42
2024/03/22 04:44:55;;;;;;;3.33;0.90;;;;;;;10.03;79.80;100359.88;4984371;28;20108;-45
2024/03/22 04:47:21;;;;;;;2.28;0.98;;;;;;;9.99;79.34;100359.84;4985904;28;20089;-43
2024/03/22 04:49:46;;;;;;;1.80;0.80;;;;;;;9.96;79.78;100355.53;4989490;28;20056;-41
2024/03/22 04:52:12;;;;;;;3.10;0.45;;;;;;;9.93;79.37;100354.66;4985739;28;20061;-42
2024/03/22 04:54:38;;;;;;;2.85;1.23;;;;;;;9.92;79.71;100355.53;4985152;28;20078;-44
2024/03/22 04:57:03;;;;;;;0.60;0.30;;;;;;;9.86;79.69;100351.19;4987209;28;20073;-42
2024/03/22 04:59:29;;;;;;;1.13;0.50;;;;;;;9.87;79.83;100337.41;4988389;28;20049;-45
2024/03/22 05:01:55;;;;;;;1.77;0.77;;;;;;;9.87;79.90;100337.41;4987058;28;20518;-42
2024/03/22 05:04:20;;;;;;;1.27;0.60;;;;;;;9.89;79.40;100335.66;4987585;28;20062;-42
2024/03/22 05:06:46;;;;;;;4.00;0.57;;;;;;;9.89;79.12;100330.50;4986205;28;20042;-44
2024/03/22 05:09:11;;;;;;;0.80;0.40;;;;;;;9.91;79.50;100333.97;4987076;28;20554;-42
2024/03/22 05:11:37;;;;;;;0.93;0.50;;;;;;;9.92;79.32;100325.34;4987259;28;20050;-42
2024/03/22 05:14:03;;;;;;;0.80;0.57;;;;;;;9.90;79.03;100324.47;4987866;28;20046;-42
2024/03/22 05:16:29;;;;;;;1.15;0.57;;;;;;;9.86;78.78;100314.97;4985956;28;20419;-42
2024/03/22 05:18:54;;;;;;;1.02;0.40;;;;;;;9.80;79.03;100312.34;4988418;28;20061;-43
2024/03/22 05:21:20;;;;;;;1.58;0.40;;;;;;;9.77;79.33;100313.22;4986431;28;20133;-42
2024/03/22 05:23:46;;;;;;;1.90;0.43;;;;;;;9.73;79.17;100308.88;4985587;28;20137;-41
2024/03/22 05:26:11;;;;;;;3.13;0.70;;;;;;;9.70;79.43;100309.72;4982996;28;20053;-42
2024/03/22 05:28:37;;;;;;;1.45;0.85;;;;;;;9.71;79.19;100303.69;4987417;28;20047;-42
2024/03/22 05:31:03;;;;;;;0.85;0.45;;;;;;;9.69;78.69;100302.81;4978255;28;20050;-42
2024/03/22 05:33:29;;;;;;;1.70;1.08;;;;;;;9.68;79.39;100301.09;4987903;28;20185;-43
2024/03/22 05:35:55;;;;;;;0.88;0.65;;;;;;;9.67;78.81;100304.53;4986354;28;20466;-41
2024/03/22 05:38:21;;;;;;;1.27;1.05;;;;;;;9.69;79.27;100307.97;4990200;28;20062;-42
2024/03/22 05:40:47;;;;;;;2.30;0.82;;;;;;;9.71;78.31;100311.44;4990791;28;20078;-40
2024/03/22 05:43:14;;;;;;;2.08;0.82;;;;;;;9.71;78.79;100310.56;4989865;28;20065;-42
2024/03/22 05:45:39;;;;;;;0.70;0.40;;;;;;;9.72;78.40;100312.28;4986402;28;20061;-41
2024/03/22 05:48:05;;;;;;;2.28;0.75;;;;;;;9.73;78.96;100314.91;4984012;28;20438;-42
2024/03/22 05:50:31;;;;;;;1.90;0.73;;;;;;;9.74;78.70;100310.59;4987663;28;20054;-43
2024/03/22 05:52:57;;;;;;;1.17;0.50;;;;;;;9.72;78.30;100317.47;4986331;28;20552;-43
2024/03/22 05:55:22;;;;;;;3.80;0.60;;;;;;;9.73;78.12;100311.47;4988033;28;20046;-41
2024/03/22 05:57:49;;;;;;;1.30;0.40;;;;;;;9.73;78.11;100311.47;4981730;28;20046;-43
2024/03/22 06:00:15;;;;;;;4.30;0.77;;;;;;;9.73;78.61;100308.88;4985269;28;20051;-42
2024/03/22 06:02:40;;;;;;;6.05;0.57;;;;;;;9.70;78.19;100312.31;4985894;28;20054;-41
2024/03/22 06:05:06;;;;;;;1.67;0.57;;;;;;;9.71;77.75;100321.78;4986869;28;20056;-43
2024/03/22 06:07:40;;;;;;;1.85;0.93;;;;;;;9.71;78.19;100319.22;4985979;28;20566;-42
2024/03/22 06:10:06;;;;;;;2.63;0.80;;;;;;;9.70;78.01;100324.38;4986241;28;20057;-43
2024/03/22 06:12:32;;;;;;;2.38;0.95;;;;;;;9.69;77.71;100313.16;4983613;28;20237;-42
2024/03/22 06:14:57;;;;;;;3.97;1.13;;;;;;;9.70;77.77;100314.91;4980314;28;20076;-41
2024/03/22 06:17:23;;;;;;;4.65;1.02;;;;;;;9.70;77.05;100309.72;4995038;28;20042;-42
2024/03/22 06:19:48;;;;;;;4.07;0.90;;;;;;;9.67;77.93;100303.66;4983045;28;20046;-41
2024/03/22 06:22:14;;;;;;;4.05;0.50;;;;;;;9.69;77.07;100296.78;4985715;28;20100;-41
2024/03/22 06:24:40;;;;;;;4.25;0.55;;;;;;;9.69;77.54;100291.63;4985497;28;20276;-42
2024/03/22 06:27:07;;;;;;;3.65;1.10;;;;;;;9.68;77.50;100300.22;4983493;28;20041;-42
2024/03/22 06:29:32;;;;;;;3.58;0.60;;;;;;;9.65;77.30;100290.72;4984593;28;20102;-43
2024/03/22 06:31:58;;;;;;;2.63;0.52;;;;;;;9.64;77.60;100297.63;4987118;28;20046;-43
2024/03/22 06:34:24;;;;;;;8.70;1.45;;;;;;;9.65;76.89;100306.22;4988504;28;20058;-41
2024/03/22 06:36:50;;;;;;;5.07;0.77;;;;;;;9.65;76.82;100311.41;4982443;28;20039;-43
2024/03/22 06:39:16;;;;;;;4.63;0.85;;;;;;;9.65;77.34;100311.41;4983448;28;20046;-41
2024/03/22 06:41:42;;;;;;;4.50;0.70;;;;;;;9.65;76.89;100311.41;4989019;28;20117;-45
2024/03/22 06:44:11;;;;;;;2.30;0.55;;;;;;;9.67;77.36;100317.47;4990590;28;20047;-43
2024/03/22 06:46:38;;;;;;;4.22;0.90;;;;;;;9.65;77.32;100316.59;4984137;28;20057;-42
2024/03/22 06:49:03;;;;;;;1.65;0.60;;;;;;;9.68;76.49;100331.25;4987496;28;20061;-42
2024/03/22 06:51:29;;;;;;;3.17;0.65;;;;;;;9.69;76.46;100323.50;4988686;28;20058;-40
2024/03/22 06:53:55;;;;;;;3.85;1.00;;;;;;;9.70;77.14;100325.25;4985071;28;20054;-43
2024/03/22 06:56:20;;;;;;;4.50;0.75;;;;;;;9.71;76.51;100332.16;4984997;28;20061;-41
2024/03/22 06:58:46;;;;;;;3.15;0.80;;;;;;;9.71;77.13;100326.97;4980477;28;20190;-42
2024/03/22 07:01:12;;;;;;;3.22;0.80;;;;;;;9.73;77.17;100321.81;4985352;28;20061;-42
2024/03/22 07:03:38;;;;;;;2.20;0.50;;;;;;;9.74;76.54;100336.47;4985906;28;20042;-41
2024/03/22 07:06:07;;;;;;;3.97;1.33;;;;;;;9.73;76.95;100330.41;4982577;28;20055;-42
2024/03/22 07:08:33;;;;;;;2.28;0.60;;;;;;;9.73;76.96;100335.59;4986636;28;20146;-42
2024/03/22 07:10:59;;;;;;;4.57;0.90;;;;;;;9.75;76.48;100335.59;4985492;28;20101;-42
2024/03/22 07:13:25;;;;;;;2.25;0.93;;;;;;;9.75;76.92;100339.06;4986417;28;20101;-43
2024/03/22 07:15:50;;;;;;;1.83;0.60;;;;;;;9.74;76.45;100341.63;4980721;28;20054;-43
2024/03/22 07:18:16;;;;;;;3.97;0.50;;;;;;;9.72;76.43;100341.63;4982018;28;20038;-43
2024/03/22 07:20:42;;;;;;;1.98;0.60;;;;;;;9.71;76.78;100337.31;4978244;28;20100;-42
2024/03/22 07:23:08;;;;;;;1.88;0.80;;;;;;;9.69;77.43;100339.00;4982001;28;20414;-42
2024/03/22 07:25:34;;;;;;;3.90;0.93;;;;;;;9.66;77.71;100339.00;4985788;28;20098;-43
2024/03/22 07:28:00;;;;;;;0.75;0.75;;;;;;;9.63;77.81;100336.41;4986507;28;20054;-41
2024/03/22 07:30:26;;;;;;;2.85;0.50;;;;;;;9.68;77.82;100337.28;4978505;28;20050;-42
2024/03/22 07:32:51;;;;;;;1.23;0.40;;;;;;;9.71;78.39;100337.31;4979698;28;20053;-42
2024/03/22 07:35:17;;;;;;;0.60;0.30;;;;;;;9.72;78.27;100333.00;4983029;28;20474;-41
2024/03/22 07:37:43;;;;;;;2.15;0.52;;;;;;;9.75;78.49;100333.88;4981954;28;20796;-44
2024/03/22 07:40:09;;;;;;;1.77;0.63;;;;;;;9.76;78.35;100334.72;4985911;28;20522;-41
2024/03/22 07:42:35;;;;;;;1.10;0.75;;;;;;;9.74;78.92;100332.16;4981544;28;20058;-43
2024/03/22 07:45:01;;;;;;;1.35;0.30;;;;;;;9.71;78.65;100321.78;4984930;28;20054;-44
2024/03/22 07:47:26;;;;;;;1.23;0.88;;;;;;;9.78;78.70;100333.03;4983398;28;20043;-43
2024/03/22 07:49:53;;;;;;;1.23;0.60;;;;;;;9.85;78.24;100332.22;4982890;28;20042;-42
2024/03/22 07:52:18;;;;;;;0.68;0.50;;;;;;;9.83;79.24;100335.66;4980928;28;20121;-43
2024/03/22 07:54:44;;;;;;;1.20;0.80;;;;;;;9.89;78.90;100340.84;4981055;28;20447;-41
2024/03/22 07:57:10;;;;;;;1.98;0.88;;;;;;;9.90;78.75;100342.59;4979475;28;20592;-41
2024/03/22 07:59:36;;;;;;;0.82;0.73;;;;;;;9.94;78.26;100339.16;4976049;28;20047;-42
2024/03/22 08:02:03;;;;;;;1.83;0.70;;;;;;;9.96;78.85;100337.44;4976779;28;20053;-41
2024/03/22 08:04:29;;;;;;;1.02;0.63;;;;;;;9.93;78.35;100346.91;4970164;28;20063;-42
2024/03/22 08:06:55;;;;;;;1.33;0.50;;;;;;;9.97;78.73;100349.50;4979323;28;20069;-42
2024/03/22 08:09:20;;;;;;;1.95;0.68;;;;;;;9.94;78.52;100339.16;4972831;28;20166;-41
2024/03/22 08:11:47;;;;;;;2.80;0.60;;;;;;;9.93;78.33;100347.75;4969563;28;20082;-42
2024/03/22 08:14:13;;;;;;;2.78;0.43;;;;;;;9.98;78.33;100346.06;4975268;28;20051;-41
2024/03/22 08:16:39;;;;;;;1.75;0.57;;;;;;;9.99;77.89;100342.63;4973582;28;20062;-41
2024/03/22 08:19:05;;;;;;;3.00;0.70;;;;;;;9.92;77.91;100343.44;4975339;28;20058;-43
2024/03/22 08:21:30;;;;;;;6.47;0.75;;;;;;;10.03;77.23;100346.94;4977546;28;20101;-42
2024/03/22 08:23:56;;;;;;;5.05;1.10;;;;;;;10.08;77.94;100343.50;4983319;28;20434;-42
2024/03/22 08:26:22;;;;;;;3.03;0.80;;;;;;;10.11;77.24;100348.72;4973945;28;20043;-42
2024/03/22 08:28:48;;;;;;;3.50;0.75;;;;;;;10.08;77.45;100348.69;4976513;28;21756;-42
2024/03/22 08:31:14;;;;;;;5.60;1.20;;;;;;;10.12;76.65;100347.84;4979788;28;20054;-41
2024/03/22 08:33:40;;;;;;;5.35;1.38;;;;;;;10.08;75.81;100359.03;4979378;28;20104;-42
2024/03/22 08:36:06;;;;;;;7.53;1.10;;;;;;;10.10;76.19;100349.56;4975206;28;20042;-43
2024/03/22 08:38:33;;;;;;;4.82;0.80;;;;;;;10.05;75.78;100356.44;4974466;28;20900;-42
2024/03/22 08:40:59;;;;;;;10.48;1.33;;;;;;;10.05;75.56;100346.97;4977788;28;20054;-42
2024/03/22 08:43:27;;;;;;;8.57;1.33;;;;;;;10.07;74.31;100352.16;4974414;28;20053;-42
2024/03/22 08:45:53;;;;;;;6.40;0.90;;;;;;;10.12;75.02;100353.03;4972684;28;20050;-42
2024/03/22 08:48:19;;;;;;;2.30;0.73;;;;;;;10.03;73.49;100353.84;4974259;28;20124;-42
2024/03/22 08:50:44;;;;;;;9.85;1.33;;;;;;;10.01;73.00;100350.41;4978691;28;20050;-42
2024/03/22 08:53:10;;;;;;;9.43;0.82;;;;;;;10.02;72.74;100358.16;4978728;28;20061;-42
2024/03/22 08:55:36;;;;;;;5.97;2.92;;;;;;;10.05;71.89;100364.19;4979417;28;20766;-44
2024/03/22 08:58:03;;;;;;;6.05;1.10;;;;;;;10.08;71.90;100361.63;4970849;28;20514;-43
2024/03/22 09:00:29;;;;;;;8.45;1.08;;;;;;;10.11;72.20;100357.34;4975970;28;20047;-41
2024/03/22 09:02:55;;;;;;;7.90;1.30;;;;;;;10.23;70.87;100366.88;4977091;28;20112;-42
2024/03/22 09:05:21;;;;;;;9.20;1.58;;;;;;;10.32;71.27;100362.56;4973410;28;20059;-42
2024/03/22 09:07:48;;;;;;;7.47;1.42;;;;;;;10.27;70.35;100366.03;4975551;28;20046;-43
2024/03/22 09:10:14;;;;;;;40.85;16.75;;;;;;;10.25;70.24;100365.16;4975445;28;20522;-42
2024/03/22 09:12:40;;;;;;;26.25;10.32;;;;;;;10.22;69.90;100349.63;4977942;28;20423;-42
2024/03/22 09:15:07;;;;;;;17.30;6.60;;;;;;;10.22;70.48;100349.63;4975873;28;20042;-41
2024/03/22 09:17:33;;;;;;;14.10;2.00;;;;;;;10.20;69.84;100350.47;4975206;28;20054;-43
2024/03/22 09:19:58;;;;;;;14.80;1.75;;;;;;;10.21;69.96;100350.47;4980311;28;20042;-42
2024/03/22 09:22:24;;;;;;;9.80;1.67;;;;;;;10.21;69.91;100347.91;4972947;28;20055;-44
2024/03/22 09:24:50;;;;;;;9.98;3.75;;;;;;;10.18;69.12;100350.47;4989813;28;20054;-42
2024/03/22 09:27:15;;;;;;;13.73;3.88;;;;;;;10.12;68.62;100353.03;4977740;28;20133;-41
2024/03/22 09:29:43;;;;;;;14.55;3.35;;;;;;;10.21;68.56;100357.38;4967145;28;20053;-44
2024/03/22 09:32:09;;;;;;;30.90;7.30;;;;;;;10.18;68.36;100355.63;4975896;28;20050;-43
2024/03/22 09:34:35;;;;;;;23.90;6.25;;;;;;;10.16;67.45;100354.75;4972343;28;20065;-42
2024/03/22 09:37:00;;;;;;;15.30;3.17;;;;;;;10.24;67.67;100363.41;4974654;28;20086;-42
2024/03/22 09:39:28;;;;;;;22.70;6.13;;;;;;;10.26;68.26;100353.94;4977432;28;20620;-44
2024/03/22 09:41:57;;;;;;;26.52;6.55;;;;;;;10.29;68.66;100364.31;4971729;28;20054;-41
2024/03/22 09:44:23;;;;;;;16.42;3.67;;;;;;;10.27;67.03;100354.81;4975643;28;20050;-41
2024/03/22 09:46:50;;;;;;;14.48;5.03;;;;;;;10.25;67.24;100365.16;4979648;28;20046;-43
2024/03/22 09:49:16;;;;;;;20.90;4.10;;;;;;;10.23;66.09;100361.69;4986263;28;20077;-44
2024/03/22 09:51:44;;;;;;;17.70;4.57;;;;;;;10.25;66.13;100375.53;4986882;28;20550;-42
2024/03/22 09:54:10;;;;;;;8.60;1.70;;;;;;;10.29;65.52;100372.09;4976795;28;20054;-42
2024/03/22 09:56:38;;;;;;;15.20;2.83;;;;;;;10.31;66.08;100376.41;4983926;28;20801;-44
2024/03/22 09:59:05;;;;;;;5.65;1.15;;;;;;;10.27;65.93;100371.19;4982802;28;20042;-42
2024/03/22 10:01:31;;;;;;;4.57;1.27;;;;;;;10.25;65.51;100374.66;4980943;28;20058;-41
2024/03/22 10:03:57;;;;;;;10.63;1.50;;;;;;;10.29;64.54;100374.66;4978380;28;20058;-43
2024/03/22 10:06:22;;;;;;;14.35;1.90;;;;;;;10.36;64.71;100369.50;4981753;28;20105;-43
2024/03/22 10:08:48;;;;;;;8.70;2.10;;;;;;;10.47;65.20;100365.25;4978566;28;20543;-42
2024/03/22 10:11:14;;;;;;;7.43;1.30;;;;;;;10.58;65.23;100374.78;4983827;28;20543;-41
2024/03/22 10:13:39;;;;;;;2.97;1.10;;;;;;;10.57;64.45;100373.06;4987307;28;20054;-43
2024/03/22 10:16:07;;;;;;;5.45;0.98;;;;;;;10.58;64.28;100367.88;4987332;28;20061;-43
2024/03/22 10:18:34;;;;;;;6.53;1.00;;;;;;;10.68;64.53;100368.78;4986851;28;20487;-42
2024/03/22 10:23:37;;;;;;;5.35;1.33;;;;;;;10.84;64.18;100363.63;5042134;28;20398;-43
2024/03/22 10:26:03;;;;;;;3.90;1.27;;;;;;;10.97;64.52;100360.16;5002922;28;20052;-42
2024/03/22 10:28:29;;;;;;;6.57;1.30;;;;;;;11.08;62.86;100356.72;5005016;28;20069;-41
2024/03/22 10:30:55;;;;;;;10.13;1.30;;;;;;;11.31;64.21;100369.66;5007849;28;20056;-42
2024/03/22 10:33:23;;;;;;;5.55;2.03;;;;;;;11.45;62.05;100361.84;5025051;28;20085;-40
2024/03/22 10:35:54;;;;;;;9.88;1.58;;;;;;;11.71;62.77;100353.16;5030703;28;20070;-42
2024/03/22 10:38:20;;;;;;;12.10;3.97;;;;;;;12.00;60.99;100357.44;5035344;28;20056;-46
2024/03/22 10:40:47;;;;;;;21.63;5.25;;;;;;;12.23;59.85;100356.50;5021384;28;20045;-44
2024/03/22 10:43:14;;;;;;;7.20;2.72;;;;;;;12.39;59.32;100351.22;5021901;28;20045;-43
2024/03/22 10:45:40;;;;;;;6.88;1.23;;;;;;;12.51;60.03;100360.66;5021742;28;20057;-41
2024/03/22 10:48:11;;;;;;;6.75;1.35;;;;;;;12.54;59.75;100355.47;5021256;28;20088;-42
2024/03/22 10:50:39;;;;;;;8.52;1.48;;;;;;;12.57;59.38;100358.88;5020822;28;20045;-44
2024/03/22 10:53:08;;;;;;;12.40;1.80;;;;;;;12.44;57.90;100354.66;5020645;28;20054;-44
2024/03/22 10:55:36;;;;;;;9.70;1.27;;;;;;;12.41;59.12;100344.28;5017852;28;20069;-44
2024/03/22 10:58:02;;;;;;;5.40;1.20;;;;;;;12.38;57.25;100346.88;5022267;28;20053;-42
2024/03/22 11:00:29;;;;;;;9.00;1.60;;;;;;;12.36;58.61;100343.44;5021998;28;20057;-43
2024/03/22 11:02:55;;;;;;;12.68;1.90;;;;;;;12.39;58.70;100343.44;5021521;28;20099;-43
2024/03/22 11:05:21;;;;;;;5.28;1.50;;;;;;;12.38;57.94;100336.50;5021484;28;20046;-44
2024/03/22 11:07:48;;;;;;;10.93;1.60;;;;;;;12.27;57.09;100326.16;5021596;28;20060;-42
2024/03/22 11:10:14;;;;;;;6.57;1.05;;;;;;;12.29;57.72;100322.69;5019921;28;20567;-41
2024/03/22 11:12:40;;;;;;;8.75;1.17;;;;;;;12.29;57.29;100329.63;5021118;28;20045;-41
2024/03/22 11:15:07;;;;;;;4.97;0.90;;;;;;;12.16;57.16;100318.44;5021143;28;20049;-41
2024/03/22 11:17:33;;;;;;;11.05;1.77;;;;;;;12.17;57.93;100325.34;5021222;28;20050;-41
2024/03/22 11:19:58;;;;;;;9.85;1.25;;;;;;;12.14;57.97;100320.16;5024623;28;20096;-44
2024/03/22 11:22:26;;;;;;;9.93;0.90;;;;;;;12.10;57.35;100323.66;5021455;28;20053;-41
2024/03/22 11:24:53;;;;;;;5.72;1.30;;;;;;;12.12;58.04;100321.94;5033476;28;20046;-43